sensor_id;sensor_type;location;lat;lon;timestamp;P1;durP1;ratioP1;P2;durP2;ratioP2
48743;SDS011;34538;48.836;9.174;2023-06-22T00:00:48;10.20;;;6.38;;
48743;SDS011;34538;48.836;9.174;2023-06-22T00:03:15;11.50;;;6.60;;
48743;SDS011;34538;48.836;9.174;2023-06-22T00:05:43;10.32;;;6.78;;
48743;SDS011;34538;48.836;9.174;2023-06-22T00:08:11;11.50;;;7.13;;
48743;SDS011;34538;48.836;9.174;2023-06-22T00:10:39;11.65;;;7.03;;
48743;SDS011;34538;48.836;9.174;2023-06-22T00:13:07;10.27;;;6.95;;
48743;SDS011;34538;48.836;9.174;2023-06-22T00:15:35;12.32;;;7.25;;
48743;SDS011;34538;48.836;9.174;2023-06-22T00:18:03;10.48;;;6.85;;
48743;SDS011;34538;48.836;9.174;2023-06-22T00:20:30;10.35;;;7.00;;
48743;SDS011;34538;48.836;9.174;2023-06-22T00:22:58;11.88;;;6.20;;
48743;SDS011;34538;48.836;9.174;2023-06-22T00:25:31;10.05;;;6.30;;
48743;SDS011;34538;48.836;9.174;2023-06-22T00:27:59;9.88;;;6.60;;
48743;SDS011;34538;48.836;9.174;2023-06-22T00:30:26;12.25;;;7.40;;
48743;SDS011;34538;48.836;9.174;2023-06-22T00:32:56;9.98;;;6.72;;
48743;SDS011;34538;48.836;9.174;2023-06-22T00:35:23;10.20;;;6.78;;
48743;SDS011;34538;48.836;9.174;2023-06-22T00:37:54;9.97;;;6.50;;
48743;SDS011;34538;48.836;9.174;2023-06-22T00:40:25;11.35;;;7.38;;
48743;SDS011;34538;48.836;9.174;2023-06-22T00:42:53;10.35;;;7.15;;
48743;SDS011;34538;48.836;9.174;2023-06-22T00:45:21;10.38;;;6.80;;
48743;SDS011;34538;48.836;9.174;2023-06-22T00:47:49;12.27;;;7.45;;
48743;SDS011;34538;48.836;9.174;2023-06-22T00:50:18;11.38;;;7.13;;
48743;SDS011;34538;48.836;9.174;2023-06-22T00:52:48;10.25;;;6.75;;
48743;SDS011;34538;48.836;9.174;2023-06-22T00:55:17;11.48;;;7.20;;
48743;SDS011;34538;48.836;9.174;2023-06-22T00:57:45;12.23;;;7.75;;
48743;SDS011;34538;48.836;9.174;2023-06-22T01:00:13;10.30;;;7.10;;
48743;SDS011;34538;48.836;9.174;2023-06-22T01:02:44;13.05;;;8.00;;
48743;SDS011;34538;48.836;9.174;2023-06-22T01:05:12;11.23;;;7.82;;
48743;SDS011;34538;48.836;9.174;2023-06-22T01:07:39;12.88;;;7.22;;
48743;SDS011;34538;48.836;9.174;2023-06-22T01:10:14;10.90;;;7.40;;
48743;SDS011;34538;48.836;9.174;2023-06-22T01:12:48;12.18;;;7.80;;
48743;SDS011;34538;48.836;9.174;2023-06-22T01:15:21;12.25;;;7.57;;
48743;SDS011;34538;48.836;9.174;2023-06-22T01:17:55;11.25;;;6.97;;
48743;SDS011;34538;48.836;9.174;2023-06-22T01:20:23;9.32;;;6.25;;
48743;SDS011;34538;48.836;9.174;2023-06-22T01:22:57;11.60;;;6.80;;
48743;SDS011;34538;48.836;9.174;2023-06-22T01:25:36;12.13;;;7.45;;
48743;SDS011;34538;48.836;9.174;2023-06-22T01:28:12;10.13;;;6.50;;
48743;SDS011;34538;48.836;9.174;2023-06-22T01:30:50;9.75;;;6.93;;
48743;SDS011;34538;48.836;9.174;2023-06-22T01:33:26;12.30;;;6.95;;
48743;SDS011;34538;48.836;9.174;2023-06-22T01:35:53;10.13;;;6.90;;
48743;SDS011;34538;48.836;9.174;2023-06-22T01:38:20;11.02;;;7.35;;
48743;SDS011;34538;48.836;9.174;2023-06-22T01:40:47;10.88;;;7.00;;
48743;SDS011;34538;48.836;9.174;2023-06-22T01:43:16;13.85;;;7.82;;
48743;SDS011;34538;48.836;9.174;2023-06-22T01:45:43;10.65;;;6.85;;
48743;SDS011;34538;48.836;9.174;2023-06-22T01:48:13;13.82;;;7.82;;
48743;SDS011;34538;48.836;9.174;2023-06-22T01:50:39;12.23;;;7.43;;
48743;SDS011;34538;48.836;9.174;2023-06-22T01:53:07;11.48;;;7.78;;
48743;SDS011;34538;48.836;9.174;2023-06-22T01:55:34;14.10;;;7.63;;
48743;SDS011;34538;48.836;9.174;2023-06-22T01:58:00;12.63;;;7.38;;
48743;SDS011;34538;48.836;9.174;2023-06-22T02:00:28;12.82;;;7.25;;
48743;SDS011;34538;48.836;9.174;2023-06-22T02:02:59;12.07;;;8.20;;
48743;SDS011;34538;48.836;9.174;2023-06-22T02:05:31;12.43;;;7.85;;
48743;SDS011;34538;48.836;9.174;2023-06-22T02:08:02;11.32;;;7.30;;
48743;SDS011;34538;48.836;9.174;2023-06-22T02:10:34;15.07;;;7.28;;
48743;SDS011;34538;48.836;9.174;2023-06-22T02:13:01;14.50;;;7.57;;
48743;SDS011;34538;48.836;9.174;2023-06-22T02:15:31;12.93;;;7.10;;
48743;SDS011;34538;48.836;9.174;2023-06-22T02:17:59;12.00;;;7.55;;
48743;SDS011;34538;48.836;9.174;2023-06-22T02:20:26;10.85;;;7.22;;
48743;SDS011;34538;48.836;9.174;2023-06-22T02:22:56;12.40;;;8.25;;
48743;SDS011;34538;48.836;9.174;2023-06-22T02:25:24;14.90;;;8.90;;
48743;SDS011;34538;48.836;9.174;2023-06-22T02:27:51;13.82;;;7.85;;
48743;SDS011;34538;48.836;9.174;2023-06-22T02:30:17;12.55;;;7.78;;
48743;SDS011;34538;48.836;9.174;2023-06-22T02:32:44;14.18;;;9.10;;
48743;SDS011;34538;48.836;9.174;2023-06-22T02:35:14;12.23;;;8.55;;
48743;SDS011;34538;48.836;9.174;2023-06-22T02:37:41;11.65;;;8.23;;
48743;SDS011;34538;48.836;9.174;2023-06-22T02:40:10;11.55;;;7.57;;
48743;SDS011;34538;48.836;9.174;2023-06-22T02:42:37;11.73;;;7.72;;
48743;SDS011;34538;48.836;9.174;2023-06-22T02:45:06;11.18;;;7.82;;
48743;SDS011;34538;48.836;9.174;2023-06-22T02:47:33;15.27;;;8.77;;
48743;SDS011;34538;48.836;9.174;2023-06-22T02:50:01;12.30;;;8.02;;
48743;SDS011;34538;48.836;9.174;2023-06-22T02:52:31;13.77;;;8.30;;
48743;SDS011;34538;48.836;9.174;2023-06-22T02:54:59;11.80;;;7.90;;
48743;SDS011;34538;48.836;9.174;2023-06-22T02:57:29;11.57;;;7.97;;
48743;SDS011;34538;48.836;9.174;2023-06-22T02:59:56;10.70;;;7.68;;
48743;SDS011;34538;48.836;9.174;2023-06-22T03:02:23;14.10;;;7.57;;
48743;SDS011;34538;48.836;9.174;2023-06-22T03:04:51;11.77;;;8.07;;
48743;SDS011;34538;48.836;9.174;2023-06-22T03:07:19;12.00;;;7.78;;
48743;SDS011;34538;48.836;9.174;2023-06-22T03:09:48;14.88;;;9.27;;
48743;SDS011;34538;48.836;9.174;2023-06-22T03:12:15;12.75;;;8.40;;
48743;SDS011;34538;48.836;9.174;2023-06-22T03:14:54;16.90;;;8.10;;
48743;SDS011;34538;48.836;9.174;2023-06-22T03:17:21;14.02;;;8.70;;
48743;SDS011;34538;48.836;9.174;2023-06-22T03:19:48;11.68;;;7.55;;
48743;SDS011;34538;48.836;9.174;2023-06-22T03:22:15;13.82;;;9.00;;
48743;SDS011;34538;48.836;9.174;2023-06-22T03:24:42;14.55;;;7.97;;
48743;SDS011;34538;48.836;9.174;2023-06-22T03:27:08;13.05;;;7.95;;
48743;SDS011;34538;48.836;9.174;2023-06-22T03:29:35;12.55;;;7.70;;
48743;SDS011;34538;48.836;9.174;2023-06-22T03:32:04;13.68;;;7.70;;
48743;SDS011;34538;48.836;9.174;2023-06-22T03:34:32;11.25;;;7.65;;
48743;SDS011;34538;48.836;9.174;2023-06-22T03:36:59;15.43;;;7.40;;
48743;SDS011;34538;48.836;9.174;2023-06-22T03:39:26;11.02;;;7.57;;
48743;SDS011;34538;48.836;9.174;2023-06-22T03:41:53;13.77;;;7.72;;
48743;SDS011;34538;48.836;9.174;2023-06-22T03:44:20;13.05;;;8.20;;
48743;SDS011;34538;48.836;9.174;2023-06-22T03:46:47;10.57;;;6.85;;
48743;SDS011;34538;48.836;9.174;2023-06-22T03:49:15;21.45;;;7.75;;
48743;SDS011;34538;48.836;9.174;2023-06-22T03:51:42;11.95;;;7.40;;
48743;SDS011;34538;48.836;9.174;2023-06-22T03:54:09;12.75;;;6.93;;
48743;SDS011;34538;48.836;9.174;2023-06-22T03:56:36;11.68;;;8.43;;
48743;SDS011;34538;48.836;9.174;2023-06-22T03:59:04;11.98;;;8.13;;
48743;SDS011;34538;48.836;9.174;2023-06-22T04:01:31;12.35;;;8.07;;
48743;SDS011;34538;48.836;9.174;2023-06-22T04:03:58;11.05;;;7.70;;
48743;SDS011;34538;48.836;9.174;2023-06-22T04:06:26;11.98;;;8.65;;
48743;SDS011;34538;48.836;9.174;2023-06-22T04:08:53;12.15;;;8.00;;
48743;SDS011;34538;48.836;9.174;2023-06-22T04:11:20;13.55;;;8.35;;
48743;SDS011;34538;48.836;9.174;2023-06-22T04:13:47;14.88;;;8.98;;
48743;SDS011;34538;48.836;9.174;2023-06-22T04:16:16;14.70;;;8.75;;
48743;SDS011;34538;48.836;9.174;2023-06-22T04:18:43;12.63;;;7.97;;
48743;SDS011;34538;48.836;9.174;2023-06-22T04:21:10;13.35;;;8.10;;
48743;SDS011;34538;48.836;9.174;2023-06-22T04:23:38;12.82;;;8.25;;
48743;SDS011;34538;48.836;9.174;2023-06-22T04:26:05;17.48;;;8.52;;
48743;SDS011;34538;48.836;9.174;2023-06-22T04:28:32;14.65;;;7.70;;
48743;SDS011;34538;48.836;9.174;2023-06-22T04:31:00;14.98;;;8.38;;
48743;SDS011;34538;48.836;9.174;2023-06-22T04:33:27;13.85;;;8.10;;
48743;SDS011;34538;48.836;9.174;2023-06-22T04:35:55;11.50;;;7.50;;
48743;SDS011;34538;48.836;9.174;2023-06-22T04:38:22;14.43;;;8.25;;
48743;SDS011;34538;48.836;9.174;2023-06-22T04:40:51;14.27;;;8.05;;
48743;SDS011;34538;48.836;9.174;2023-06-22T04:43:18;11.10;;;7.72;;
48743;SDS011;34538;48.836;9.174;2023-06-22T04:45:45;12.70;;;8.13;;
48743;SDS011;34538;48.836;9.174;2023-06-22T04:48:17;14.38;;;8.18;;
48743;SDS011;34538;48.836;9.174;2023-06-22T04:50:44;10.98;;;7.45;;
48743;SDS011;34538;48.836;9.174;2023-06-22T04:53:11;12.23;;;8.75;;
48743;SDS011;34538;48.836;9.174;2023-06-22T04:55:38;10.65;;;7.28;;
48743;SDS011;34538;48.836;9.174;2023-06-22T04:58:12;11.23;;;7.30;;
48743;SDS011;34538;48.836;9.174;2023-06-22T05:00:38;11.00;;;7.47;;
48743;SDS011;34538;48.836;9.174;2023-06-22T05:03:05;10.57;;;7.57;;
48743;SDS011;34538;48.836;9.174;2023-06-22T05:05:36;13.35;;;7.55;;
48743;SDS011;34538;48.836;9.174;2023-06-22T05:08:03;13.02;;;7.43;;
48743;SDS011;34538;48.836;9.174;2023-06-22T05:10:32;10.75;;;7.15;;
48743;SDS011;34538;48.836;9.174;2023-06-22T05:12:58;15.93;;;7.45;;
48743;SDS011;34538;48.836;9.174;2023-06-22T05:15:27;12.25;;;7.45;;
48743;SDS011;34538;48.836;9.174;2023-06-22T05:17:55;10.40;;;7.10;;
48743;SDS011;34538;48.836;9.174;2023-06-22T05:20:23;12.38;;;7.00;;
48743;SDS011;34538;48.836;9.174;2023-06-22T05:22:50;10.73;;;6.90;;
48743;SDS011;34538;48.836;9.174;2023-06-22T05:25:17;9.40;;;6.55;;
48743;SDS011;34538;48.836;9.174;2023-06-22T05:27:44;12.95;;;6.88;;
48743;SDS011;34538;48.836;9.174;2023-06-22T05:30:11;12.20;;;7.32;;
48743;SDS011;34538;48.836;9.174;2023-06-22T05:32:39;11.15;;;6.45;;
48743;SDS011;34538;48.836;9.174;2023-06-22T05:35:06;11.32;;;7.13;;
48743;SDS011;34538;48.836;9.174;2023-06-22T05:37:33;10.77;;;6.47;;
48743;SDS011;34538;48.836;9.174;2023-06-22T05:40:00;11.00;;;6.57;;
48743;SDS011;34538;48.836;9.174;2023-06-22T05:42:28;9.95;;;6.40;;
48743;SDS011;34538;48.836;9.174;2023-06-22T05:44:54;11.90;;;6.57;;
48743;SDS011;34538;48.836;9.174;2023-06-22T05:47:23;9.52;;;6.20;;
48743;SDS011;34538;48.836;9.174;2023-06-22T05:49:52;9.73;;;6.93;;
48743;SDS011;34538;48.836;9.174;2023-06-22T05:52:18;11.07;;;7.30;;
48743;SDS011;34538;48.836;9.174;2023-06-22T05:54:45;10.85;;;6.40;;
48743;SDS011;34538;48.836;9.174;2023-06-22T05:57:12;11.93;;;6.85;;
48743;SDS011;34538;48.836;9.174;2023-06-22T05:59:39;11.95;;;7.32;;
48743;SDS011;34538;48.836;9.174;2023-06-22T06:02:06;12.50;;;6.95;;
48743;SDS011;34538;48.836;9.174;2023-06-22T06:04:33;12.07;;;7.57;;
48743;SDS011;34538;48.836;9.174;2023-06-22T06:07:02;11.82;;;6.60;;
48743;SDS011;34538;48.836;9.174;2023-06-22T06:09:29;14.43;;;7.07;;
48743;SDS011;34538;48.836;9.174;2023-06-22T06:11:56;13.07;;;7.32;;
48743;SDS011;34538;48.836;9.174;2023-06-22T06:14:23;11.20;;;6.93;;
48743;SDS011;34538;48.836;9.174;2023-06-22T06:16:49;13.55;;;7.38;;
48743;SDS011;34538;48.836;9.174;2023-06-22T06:19:16;12.38;;;6.82;;
48743;SDS011;34538;48.836;9.174;2023-06-22T06:21:43;10.68;;;6.10;;
48743;SDS011;34538;48.836;9.174;2023-06-22T06:24:12;10.13;;;6.47;;
48743;SDS011;34538;48.836;9.174;2023-06-22T06:26:39;10.00;;;5.93;;
48743;SDS011;34538;48.836;9.174;2023-06-22T06:29:06;11.88;;;7.28;;
48743;SDS011;34538;48.836;9.174;2023-06-22T06:31:33;10.85;;;6.90;;
48743;SDS011;34538;48.836;9.174;2023-06-22T06:34:00;11.93;;;6.53;;
48743;SDS011;34538;48.836;9.174;2023-06-22T06:36:27;10.90;;;6.60;;
48743;SDS011;34538;48.836;9.174;2023-06-22T06:38:54;11.15;;;6.32;;
48743;SDS011;34538;48.836;9.174;2023-06-22T06:41:22;10.82;;;6.18;;
48743;SDS011;34538;48.836;9.174;2023-06-22T06:43:49;10.23;;;5.95;;
48743;SDS011;34538;48.836;9.174;2023-06-22T06:46:17;10.85;;;6.35;;
48743;SDS011;34538;48.836;9.174;2023-06-22T06:48:44;9.73;;;6.13;;
48743;SDS011;34538;48.836;9.174;2023-06-22T06:51:11;9.20;;;5.70;;
48743;SDS011;34538;48.836;9.174;2023-06-22T06:53:38;9.80;;;5.78;;
48743;SDS011;34538;48.836;9.174;2023-06-22T06:56:05;9.48;;;6.03;;
48743;SDS011;34538;48.836;9.174;2023-06-22T06:58:33;8.88;;;5.35;;
48743;SDS011;34538;48.836;9.174;2023-06-22T07:01:00;9.73;;;5.68;;
48743;SDS011;34538;48.836;9.174;2023-06-22T07:03:27;11.45;;;5.97;;
48743;SDS011;34538;48.836;9.174;2023-06-22T07:05:54;10.15;;;5.85;;
48743;SDS011;34538;48.836;9.174;2023-06-22T07:08:21;9.63;;;5.97;;
48743;SDS011;34538;48.836;9.174;2023-06-22T07:10:48;10.38;;;6.10;;
48743;SDS011;34538;48.836;9.174;2023-06-22T07:13:15;9.85;;;4.97;;
48743;SDS011;34538;48.836;9.174;2023-06-22T07:15:43;9.27;;;6.05;;
48743;SDS011;34538;48.836;9.174;2023-06-22T07:18:10;8.73;;;5.20;;
48743;SDS011;34538;48.836;9.174;2023-06-22T07:20:37;9.15;;;5.65;;
48743;SDS011;34538;48.836;9.174;2023-06-22T07:23:06;8.43;;;5.15;;
48743;SDS011;34538;48.836;9.174;2023-06-22T07:25:33;8.20;;;5.25;;
48743;SDS011;34538;48.836;9.174;2023-06-22T07:28:00;13.15;;;5.65;;
48743;SDS011;34538;48.836;9.174;2023-06-22T07:30:28;13.55;;;5.68;;
48743;SDS011;34538;48.836;9.174;2023-06-22T07:32:56;11.10;;;5.35;;
48743;SDS011;34538;48.836;9.174;2023-06-22T07:35:28;7.10;;;4.45;;
48743;SDS011;34538;48.836;9.174;2023-06-22T07:37:55;10.68;;;5.22;;
48743;SDS011;34538;48.836;9.174;2023-06-22T07:40:22;8.13;;;5.10;;
48743;SDS011;34538;48.836;9.174;2023-06-22T07:42:49;10.35;;;5.00;;
48743;SDS011;34538;48.836;9.174;2023-06-22T07:45:16;9.73;;;5.18;;
48743;SDS011;34538;48.836;9.174;2023-06-22T07:47:43;8.30;;;5.03;;
48743;SDS011;34538;48.836;9.174;2023-06-22T07:50:12;12.02;;;5.32;;
48743;SDS011;34538;48.836;9.174;2023-06-22T07:52:40;8.43;;;4.65;;
48743;SDS011;34538;48.836;9.174;2023-06-22T07:55:07;9.90;;;5.13;;
48743;SDS011;34538;48.836;9.174;2023-06-22T07:57:34;7.97;;;4.30;;
48743;SDS011;34538;48.836;9.174;2023-06-22T08:00:02;7.95;;;4.25;;
48743;SDS011;34538;48.836;9.174;2023-06-22T08:02:37;9.75;;;4.68;;
48743;SDS011;34538;48.836;9.174;2023-06-22T08:05:05;7.80;;;4.32;;
48743;SDS011;34538;48.836;9.174;2023-06-22T08:07:35;7.82;;;4.43;;
48743;SDS011;34538;48.836;9.174;2023-06-22T08:10:03;10.38;;;4.55;;
48743;SDS011;34538;48.836;9.174;2023-06-22T08:12:30;7.50;;;5.25;;
48743;SDS011;34538;48.836;9.174;2023-06-22T08:14:57;7.05;;;4.00;;
48743;SDS011;34538;48.836;9.174;2023-06-22T08:17:24;8.18;;;3.97;;
48743;SDS011;34538;48.836;9.174;2023-06-22T08:19:51;8.02;;;4.28;;
48743;SDS011;34538;48.836;9.174;2023-06-22T08:22:18;8.75;;;4.57;;
48743;SDS011;34538;48.836;9.174;2023-06-22T08:24:46;7.65;;;4.60;;
48743;SDS011;34538;48.836;9.174;2023-06-22T08:27:13;8.18;;;4.18;;
48743;SDS011;34538;48.836;9.174;2023-06-22T08:29:42;6.72;;;4.40;;
48743;SDS011;34538;48.836;9.174;2023-06-22T08:32:10;9.00;;;4.45;;
48743;SDS011;34538;48.836;9.174;2023-06-22T08:34:37;6.82;;;4.13;;
48743;SDS011;34538;48.836;9.174;2023-06-22T08:37:07;7.82;;;4.72;;
48743;SDS011;34538;48.836;9.174;2023-06-22T08:39:34;6.45;;;3.90;;
48743;SDS011;34538;48.836;9.174;2023-06-22T08:42:02;8.40;;;4.40;;
48743;SDS011;34538;48.836;9.174;2023-06-22T08:44:29;8.27;;;4.50;;
48743;SDS011;34538;48.836;9.174;2023-06-22T08:46:56;9.85;;;4.40;;
48743;SDS011;34538;48.836;9.174;2023-06-22T08:49:23;9.43;;;4.18;;
48743;SDS011;34538;48.836;9.174;2023-06-22T08:51:50;9.57;;;5.05;;
48743;SDS011;34538;48.836;9.174;2023-06-22T08:54:19;10.27;;;4.68;;
48743;SDS011;34538;48.836;9.174;2023-06-22T08:56:45;8.77;;;4.90;;
48743;SDS011;34538;48.836;9.174;2023-06-22T08:59:14;7.55;;;4.10;;
48743;SDS011;34538;48.836;9.174;2023-06-22T09:01:41;7.40;;;4.25;;
48743;SDS011;34538;48.836;9.174;2023-06-22T09:04:13;7.38;;;4.63;;
48743;SDS011;34538;48.836;9.174;2023-06-22T09:06:41;6.32;;;4.30;;
48743;SDS011;34538;48.836;9.174;2023-06-22T09:09:10;8.48;;;4.55;;
48743;SDS011;34538;48.836;9.174;2023-06-22T09:11:37;10.82;;;4.45;;
48743;SDS011;34538;48.836;9.174;2023-06-22T09:14:03;7.13;;;4.00;;
48743;SDS011;34538;48.836;9.174;2023-06-22T09:16:32;6.72;;;4.10;;
48743;SDS011;34538;48.836;9.174;2023-06-22T09:18:59;7.90;;;4.20;;
48743;SDS011;34538;48.836;9.174;2023-06-22T09:21:26;8.93;;;4.65;;
48743;SDS011;34538;48.836;9.174;2023-06-22T09:23:53;8.07;;;4.00;;
48743;SDS011;34538;48.836;9.174;2023-06-22T09:26:19;8.88;;;4.47;;
48743;SDS011;34538;48.836;9.174;2023-06-22T09:28:47;7.30;;;3.67;;
48743;SDS011;34538;48.836;9.174;2023-06-22T09:31:14;9.60;;;4.50;;
48743;SDS011;34538;48.836;9.174;2023-06-22T09:33:43;6.95;;;4.15;;
48743;SDS011;34538;48.836;9.174;2023-06-22T09:36:11;10.48;;;4.75;;
48743;SDS011;34538;48.836;9.174;2023-06-22T09:38:38;7.80;;;4.55;;
48743;SDS011;34538;48.836;9.174;2023-06-22T09:41:05;11.90;;;4.70;;
48743;SDS011;34538;48.836;9.174;2023-06-22T09:43:32;8.23;;;4.00;;
48743;SDS011;34538;48.836;9.174;2023-06-22T09:46:00;9.77;;;4.32;;
48743;SDS011;34538;48.836;9.174;2023-06-22T09:48:27;9.18;;;4.07;;
48743;SDS011;34538;48.836;9.174;2023-06-22T09:50:56;7.95;;;4.72;;
48743;SDS011;34538;48.836;9.174;2023-06-22T09:53:23;8.90;;;4.70;;
48743;SDS011;34538;48.836;9.174;2023-06-22T09:55:50;10.70;;;4.28;;
48743;SDS011;34538;48.836;9.174;2023-06-22T09:58:17;8.23;;;4.90;;
48743;SDS011;34538;48.836;9.174;2023-06-22T10:00:44;8.85;;;4.40;;
48743;SDS011;34538;48.836;9.174;2023-06-22T10:03:10;9.82;;;4.65;;
48743;SDS011;34538;48.836;9.174;2023-06-22T10:05:37;10.40;;;4.10;;
48743;SDS011;34538;48.836;9.174;2023-06-22T10:08:05;10.07;;;4.47;;
48743;SDS011;34538;48.836;9.174;2023-06-22T10:10:34;8.82;;;4.80;;
48743;SDS011;34538;48.836;9.174;2023-06-22T10:13:03;8.35;;;4.20;;
48743;SDS011;34538;48.836;9.174;2023-06-22T10:15:35;7.97;;;4.18;;
48743;SDS011;34538;48.836;9.174;2023-06-22T10:18:02;8.63;;;4.20;;
48743;SDS011;34538;48.836;9.174;2023-06-22T10:20:29;11.40;;;4.38;;
48743;SDS011;34538;48.836;9.174;2023-06-22T10:22:56;9.63;;;4.45;;
48743;SDS011;34538;48.836;9.174;2023-06-22T10:25:24;8.95;;;4.97;;
48743;SDS011;34538;48.836;9.174;2023-06-22T10:27:52;8.43;;;4.03;;
48743;SDS011;34538;48.836;9.174;2023-06-22T10:30:19;8.70;;;4.43;;
48743;SDS011;34538;48.836;9.174;2023-06-22T10:32:46;8.82;;;4.70;;
48743;SDS011;34538;48.836;9.174;2023-06-22T10:35:13;9.07;;;4.53;;
48743;SDS011;34538;48.836;9.174;2023-06-22T10:37:41;8.07;;;4.47;;
48743;SDS011;34538;48.836;9.174;2023-06-22T10:40:09;10.60;;;4.70;;
48743;SDS011;34538;48.836;9.174;2023-06-22T10:42:38;8.48;;;4.47;;
48743;SDS011;34538;48.836;9.174;2023-06-22T10:45:06;10.75;;;4.35;;
48743;SDS011;34538;48.836;9.174;2023-06-22T10:47:34;11.77;;;4.82;;
48743;SDS011;34538;48.836;9.174;2023-06-22T10:50:01;9.75;;;4.63;;
48743;SDS011;34538;48.836;9.174;2023-06-22T10:52:28;9.50;;;4.07;;
48743;SDS011;34538;48.836;9.174;2023-06-22T10:54:55;9.90;;;4.10;;
48743;SDS011;34538;48.836;9.174;2023-06-22T10:57:22;10.85;;;4.43;;
48743;SDS011;34538;48.836;9.174;2023-06-22T10:59:50;11.05;;;5.35;;
48743;SDS011;34538;48.836;9.174;2023-06-22T11:02:17;10.70;;;4.90;;
48743;SDS011;34538;48.836;9.174;2023-06-22T11:04:44;10.77;;;4.50;;
48743;SDS011;34538;48.836;9.174;2023-06-22T11:07:12;12.75;;;4.88;;
48743;SDS011;34538;48.836;9.174;2023-06-22T11:09:39;12.45;;;4.68;;
48743;SDS011;34538;48.836;9.174;2023-06-22T11:12:06;13.48;;;5.65;;
48743;SDS011;34538;48.836;9.174;2023-06-22T11:14:33;6.50;;;4.20;;
48743;SDS011;34538;48.836;9.174;2023-06-22T11:17:02;9.88;;;5.43;;
48743;SDS011;34538;48.836;9.174;2023-06-22T11:19:28;8.93;;;4.53;;
48743;SDS011;34538;48.836;9.174;2023-06-22T11:21:55;14.88;;;5.43;;
48743;SDS011;34538;48.836;9.174;2023-06-22T11:24:22;10.52;;;4.93;;
48743;SDS011;34538;48.836;9.174;2023-06-22T11:26:49;9.98;;;4.50;;
48743;SDS011;34538;48.836;9.174;2023-06-22T11:29:16;10.68;;;5.05;;
48743;SDS011;34538;48.836;9.174;2023-06-22T11:31:43;8.95;;;4.15;;
48743;SDS011;34538;48.836;9.174;2023-06-22T11:34:11;7.95;;;4.25;;
48743;SDS011;34538;48.836;9.174;2023-06-22T11:36:38;8.18;;;4.25;;
48743;SDS011;34538;48.836;9.174;2023-06-22T11:39:07;8.32;;;4.25;;
48743;SDS011;34538;48.836;9.174;2023-06-22T11:41:36;7.68;;;4.78;;
48743;SDS011;34538;48.836;9.174;2023-06-22T11:44:02;11.85;;;4.82;;
48743;SDS011;34538;48.836;9.174;2023-06-22T11:46:30;12.35;;;4.93;;
48743;SDS011;34538;48.836;9.174;2023-06-22T11:48:58;10.07;;;4.55;;
48743;SDS011;34538;48.836;9.174;2023-06-22T11:51:26;10.35;;;5.05;;
48743;SDS011;34538;48.836;9.174;2023-06-22T11:53:53;11.02;;;4.60;;
48743;SDS011;34538;48.836;9.174;2023-06-22T11:56:20;10.35;;;4.70;;
48743;SDS011;34538;48.836;9.174;2023-06-22T11:58:47;7.07;;;4.32;;
48743;SDS011;34538;48.836;9.174;2023-06-22T12:01:13;11.38;;;5.53;;
48743;SDS011;34538;48.836;9.174;2023-06-22T12:03:40;11.25;;;5.32;;
48743;SDS011;34538;48.836;9.174;2023-06-22T12:06:08;12.80;;;4.65;;
48743;SDS011;34538;48.836;9.174;2023-06-22T12:08:37;11.73;;;4.13;;
48743;SDS011;34538;48.836;9.174;2023-06-22T12:11:03;10.38;;;5.03;;
48743;SDS011;34538;48.836;9.174;2023-06-22T12:13:30;8.90;;;4.00;;
48743;SDS011;34538;48.836;9.174;2023-06-22T12:15:57;11.13;;;4.43;;
48743;SDS011;34538;48.836;9.174;2023-06-22T12:18:24;9.85;;;4.50;;
48743;SDS011;34538;48.836;9.174;2023-06-22T12:20:51;7.43;;;4.20;;
48743;SDS011;34538;48.836;9.174;2023-06-22T12:23:18;10.27;;;4.45;;
48743;SDS011;34538;48.836;9.174;2023-06-22T12:25:46;13.50;;;4.80;;
48743;SDS011;34538;48.836;9.174;2023-06-22T12:28:13;9.07;;;4.30;;
48743;SDS011;34538;48.836;9.174;2023-06-22T12:30:40;13.38;;;4.82;;
48743;SDS011;34538;48.836;9.174;2023-06-22T12:33:06;8.80;;;4.60;;
48743;SDS011;34538;48.836;9.174;2023-06-22T12:35:34;10.43;;;4.57;;
48743;SDS011;34538;48.836;9.174;2023-06-22T12:38:00;8.45;;;5.18;;
48743;SDS011;34538;48.836;9.174;2023-06-22T12:40:28;12.52;;;5.35;;
48743;SDS011;34538;48.836;9.174;2023-06-22T12:42:56;9.35;;;5.07;;
48743;SDS011;34538;48.836;9.174;2023-06-22T12:45:23;13.05;;;5.55;;
48743;SDS011;34538;48.836;9.174;2023-06-22T12:47:53;8.77;;;4.20;;
48743;SDS011;34538;48.836;9.174;2023-06-22T12:50:20;10.00;;;4.10;;
48743;SDS011;34538;48.836;9.174;2023-06-22T12:52:47;11.20;;;5.07;;
48743;SDS011;34538;48.836;9.174;2023-06-22T12:55:14;9.88;;;4.85;;
48743;SDS011;34538;48.836;9.174;2023-06-22T12:57:41;10.98;;;4.35;;
48743;SDS011;34538;48.836;9.174;2023-06-22T13:00:10;12.10;;;5.18;;
48743;SDS011;34538;48.836;9.174;2023-06-22T13:02:37;7.40;;;4.10;;
48743;SDS011;34538;48.836;9.174;2023-06-22T13:05:04;9.63;;;4.57;;
48743;SDS011;34538;48.836;9.174;2023-06-22T13:07:32;8.80;;;4.60;;
48743;SDS011;34538;48.836;9.174;2023-06-22T13:09:58;13.27;;;4.47;;
48743;SDS011;34538;48.836;9.174;2023-06-22T13:12:25;10.02;;;4.68;;
48743;SDS011;34538;48.836;9.174;2023-06-22T13:14:52;12.75;;;4.50;;
48743;SDS011;34538;48.836;9.174;2023-06-22T13:17:20;9.07;;;4.85;;
48743;SDS011;34538;48.836;9.174;2023-06-22T13:19:47;8.82;;;4.75;;
48743;SDS011;34538;48.836;9.174;2023-06-22T13:22:27;11.00;;;4.75;;
48743;SDS011;34538;48.836;9.174;2023-06-22T13:24:56;9.43;;;4.63;;
48743;SDS011;34538;48.836;9.174;2023-06-22T13:27:23;11.65;;;5.47;;
48743;SDS011;34538;48.836;9.174;2023-06-22T13:29:50;8.73;;;4.22;;
48743;SDS011;34538;48.836;9.174;2023-06-22T13:32:17;10.38;;;4.68;;
48743;SDS011;34538;48.836;9.174;2023-06-22T13:34:46;7.78;;;4.60;;
48743;SDS011;34538;48.836;9.174;2023-06-22T13:37:12;10.70;;;4.32;;
48743;SDS011;34538;48.836;9.174;2023-06-22T13:39:39;13.00;;;5.35;;
48743;SDS011;34538;48.836;9.174;2023-06-22T13:42:06;13.82;;;4.93;;
48743;SDS011;34538;48.836;9.174;2023-06-22T13:44:34;8.60;;;4.38;;
48743;SDS011;34538;48.836;9.174;2023-06-22T13:47:00;10.27;;;5.20;;
48743;SDS011;34538;48.836;9.174;2023-06-22T13:49:28;10.18;;;4.55;;
48743;SDS011;34538;48.836;9.174;2023-06-22T13:51:56;12.23;;;4.43;;
48743;SDS011;34538;48.836;9.174;2023-06-22T13:54:23;7.28;;;4.40;;
48743;SDS011;34538;48.836;9.174;2023-06-22T13:56:50;8.20;;;4.50;;
48743;SDS011;34538;48.836;9.174;2023-06-22T13:59:17;13.13;;;5.22;;
48743;SDS011;34538;48.836;9.174;2023-06-22T14:01:45;9.27;;;4.45;;
48743;SDS011;34538;48.836;9.174;2023-06-22T14:04:12;12.57;;;4.38;;
48743;SDS011;34538;48.836;9.174;2023-06-22T14:06:39;9.63;;;4.60;;
48743;SDS011;34538;48.836;9.174;2023-06-22T14:09:07;10.60;;;4.85;;
48743;SDS011;34538;48.836;9.174;2023-06-22T14:11:34;10.15;;;4.82;;
48743;SDS011;34538;48.836;9.174;2023-06-22T14:14:01;9.57;;;4.30;;
48743;SDS011;34538;48.836;9.174;2023-06-22T14:16:28;9.75;;;4.43;;
48743;SDS011;34538;48.836;9.174;2023-06-22T14:18:54;10.30;;;4.10;;
48743;SDS011;34538;48.836;9.174;2023-06-22T14:21:21;14.15;;;4.65;;
48743;SDS011;34538;48.836;9.174;2023-06-22T14:23:48;8.73;;;4.00;;
48743;SDS011;34538;48.836;9.174;2023-06-22T14:26:16;10.80;;;4.63;;
48743;SDS011;34538;48.836;9.174;2023-06-22T14:28:44;12.65;;;4.45;;
48743;SDS011;34538;48.836;9.174;2023-06-22T14:31:13;14.90;;;4.10;;
48743;SDS011;34538;48.836;9.174;2023-06-22T14:33:40;11.40;;;4.30;;
48743;SDS011;34538;48.836;9.174;2023-06-22T14:36:10;9.85;;;4.20;;
48743;SDS011;34538;48.836;9.174;2023-06-22T14:38:37;10.07;;;4.88;;
48743;SDS011;34538;48.836;9.174;2023-06-22T14:41:04;13.45;;;5.07;;